createdAt,value
2018-08-11T00:00:33.849Z,1.60
2018-08-11T00:03:02.255Z,1.50
2018-08-11T00:05:30.609Z,1.40
2018-08-11T00:07:59.057Z,1.30
2018-08-11T00:10:27.469Z,1.60
2018-08-11T00:12:55.797Z,1.30
2018-08-11T00:15:24.163Z,1.43
2018-08-11T00:17:52.523Z,1.20
2018-08-11T00:20:25.088Z,1.50
2018-08-11T00:22:53.451Z,1.50
2018-08-11T00:25:21.972Z,1.40
2018-08-11T00:27:50.370Z,1.17
2018-08-11T00:30:20.776Z,1.10
2018-08-11T00:32:49.192Z,1.40
2018-08-11T00:35:17.516Z,1.20
2018-08-11T00:37:46.176Z,1.17
2018-08-11T00:40:16.711Z,1.40
2018-08-11T00:42:46.307Z,1.40
2018-08-11T00:45:15.505Z,1.47
2018-08-11T00:47:43.999Z,1.30
2018-08-11T00:50:16.053Z,1.40
2018-08-11T00:52:44.428Z,1.50
2018-08-11T00:55:13.724Z,1.30
2018-08-11T00:57:42.441Z,1.30
2018-08-11T01:00:14.088Z,1.40
2018-08-11T01:02:42.878Z,1.40
2018-08-11T01:05:13.796Z,1.20
2018-08-11T01:07:42.734Z,1.30
2018-08-11T01:10:11.886Z,1.60
2018-08-11T01:12:41.315Z,1.30
2018-08-11T01:15:12.125Z,1.57
2018-08-11T01:17:40.495Z,1.60
2018-08-11T01:20:10.021Z,1.93
2018-08-11T01:22:39.018Z,1.72
2018-08-11T01:25:07.568Z,1.60
2018-08-11T01:27:36.172Z,1.75
2018-08-11T01:30:06.759Z,1.40
2018-08-11T01:32:35.126Z,1.20
2018-08-11T01:35:03.655Z,0.90
2018-08-11T01:37:31.987Z,0.90
2018-08-11T01:40:00.308Z,0.90
2018-08-11T01:42:28.694Z,0.80
2018-08-11T01:44:57.050Z,0.80
2018-08-11T01:47:25.378Z,0.70
2018-08-11T01:49:53.946Z,1.03
2018-08-11T01:52:22.273Z,1.60
2018-08-11T01:54:50.688Z,1.60
2018-08-11T01:57:19.180Z,1.20
2018-08-11T01:59:47.565Z,1.10
2018-08-11T02:02:15.881Z,1.35
2018-08-11T02:04:44.220Z,0.90
2018-08-11T02:07:12.537Z,0.70
2018-08-11T02:09:40.928Z,1.00
2018-08-11T02:12:09.360Z,0.90
2018-08-11T02:14:37.736Z,1.20
2018-08-11T02:17:06.582Z,1.20
2018-08-11T02:19:34.961Z,1.20
2018-08-11T02:22:03.500Z,1.25
2018-08-11T02:24:31.851Z,1.20
2018-08-11T02:27:00.242Z,1.20
2018-08-11T02:29:28.688Z,1.12
2018-08-11T02:31:57.030Z,1.30
2018-08-11T02:34:25.569Z,0.98
2018-08-11T02:36:53.850Z,1.00
2018-08-11T02:39:22.216Z,0.95
2018-08-11T02:41:50.521Z,1.00
2018-08-11T02:44:18.898Z,1.50
2018-08-11T02:46:47.285Z,1.10
2018-08-11T02:49:15.616Z,3.57
2018-08-11T02:51:43.956Z,1.80
2018-08-11T02:54:12.584Z,1.70
2018-08-11T02:56:40.894Z,1.47
2018-08-11T02:59:09.291Z,1.10
2018-08-11T03:01:37.644Z,1.07
2018-08-11T03:04:05.953Z,1.10
2018-08-11T03:06:34.261Z,1.20
2018-08-11T03:09:02.595Z,1.33
2018-08-11T03:11:30.988Z,1.10
2018-08-11T03:13:59.379Z,1.40
2018-08-11T03:16:27.704Z,1.30
2018-08-11T03:18:56.063Z,1.57
2018-08-11T03:21:24.422Z,1.90
2018-08-11T03:23:52.773Z,1.60
2018-08-11T03:26:21.116Z,1.72
2018-08-11T03:28:49.502Z,2.20
2018-08-11T03:31:17.833Z,2.10
2018-08-11T03:33:46.209Z,1.90
2018-08-11T03:36:14.525Z,2.40
2018-08-11T03:38:42.896Z,2.30
2018-08-11T03:41:11.231Z,2.33
2018-08-11T03:43:39.568Z,2.75
2018-08-11T03:46:08.113Z,2.60
2018-08-11T03:48:36.468Z,2.65
2018-08-11T03:51:04.813Z,2.40
2018-08-11T03:53:33.135Z,2.87
2018-08-11T03:56:01.469Z,2.60
2018-08-11T03:58:29.821Z,3.17
2018-08-11T04:00:58.160Z,3.40
2018-08-11T04:03:26.513Z,3.75
2018-08-11T04:05:54.841Z,3.62
2018-08-11T04:08:23.211Z,5.00
2018-08-11T04:10:51.560Z,4.70
2018-08-11T04:13:19.933Z,4.90
2018-08-11T04:15:48.233Z,5.50
2018-08-11T04:18:16.556Z,5.65
2018-08-11T04:20:44.876Z,5.80
2018-08-11T04:23:13.226Z,5.97
2018-08-11T04:25:41.582Z,6.50
2018-08-11T04:28:10.113Z,6.85
2018-08-11T04:30:38.459Z,7.60
2018-08-11T04:33:06.828Z,7.90
2018-08-11T04:35:35.207Z,7.97
2018-08-11T04:38:03.570Z,8.40
2018-08-11T04:40:31.948Z,7.55
2018-08-11T04:43:00.343Z,7.47
2018-08-11T04:45:28.698Z,7.80
2018-08-11T04:47:57.010Z,6.53
2018-08-11T04:50:25.341Z,6.80
2018-08-11T04:52:53.740Z,6.05
2018-08-11T04:55:22.119Z,5.83
2018-08-11T04:57:50.553Z,5.40
2018-08-11T05:00:18.937Z,4.90
2018-08-11T05:02:47.273Z,4.80
2018-08-11T05:05:15.620Z,4.40
2018-08-11T05:07:43.936Z,4.20
2018-08-11T05:10:12.253Z,4.10
2018-08-11T05:12:40.592Z,3.90
2018-08-11T05:15:09.361Z,3.60
2018-08-11T05:17:37.704Z,3.67
2018-08-11T05:20:06.060Z,3.70
2018-08-11T05:22:34.437Z,3.58
2018-08-11T05:25:02.804Z,3.52
2018-08-11T05:27:31.155Z,3.30
2018-08-11T05:29:59.532Z,3.60
2018-08-11T05:32:27.844Z,4.22
2018-08-11T05:34:56.227Z,4.40
2018-08-11T05:37:24.563Z,4.40
2018-08-11T05:39:52.921Z,5.00
2018-08-11T05:42:21.270Z,5.57
2018-08-11T05:44:49.634Z,6.73
2018-08-11T05:47:17.974Z,6.85
2018-08-11T05:49:46.301Z,8.18
2018-08-11T05:52:14.780Z,8.20
2018-08-11T05:54:43.092Z,8.18
2018-08-11T05:57:11.428Z,9.18
2018-08-11T05:59:39.767Z,8.50
2018-08-11T06:02:08.256Z,10.65
2018-08-11T06:04:36.625Z,10.03
2018-08-11T06:07:05.171Z,10.67
2018-08-11T06:09:33.531Z,13.70
2018-08-11T06:12:01.961Z,11.43
2018-08-11T06:14:30.357Z,12.23
2018-08-11T06:16:58.731Z,11.40
2018-08-11T06:19:27.110Z,12.93
2018-08-11T06:21:55.714Z,12.07
2018-08-11T06:24:24.170Z,11.80
2018-08-11T06:26:52.523Z,13.18
2018-08-11T06:29:20.884Z,13.18
2018-08-11T06:31:49.304Z,11.70
2018-08-11T06:34:17.621Z,12.93
2018-08-11T06:36:45.991Z,13.80
2018-08-11T06:39:15.273Z,14.05
2018-08-11T06:41:44.109Z,13.90
2018-08-11T06:44:13.034Z,14.95
2018-08-11T06:46:41.410Z,15.30
2018-08-11T06:49:09.772Z,16.00
2018-08-11T06:51:38.373Z,16.67
2018-08-11T06:54:06.763Z,15.20
2018-08-11T06:56:35.207Z,18.60
2018-08-11T06:59:03.607Z,20.08
2018-08-11T07:03:56.879Z,20.17
2018-08-11T07:06:25.220Z,20.02
2018-08-11T07:08:53.624Z,20.57
2018-08-11T07:11:21.924Z,20.95
2018-08-11T07:13:50.270Z,19.98
2018-08-11T07:16:18.629Z,24.20
2018-08-11T07:18:46.975Z,21.83
2018-08-11T07:21:15.488Z,21.00
2018-08-11T07:23:43.736Z,22.37
2018-08-11T07:26:12.156Z,22.37
2018-08-11T07:28:40.873Z,20.17
2018-08-11T07:31:09.229Z,20.43
2018-08-11T07:33:37.557Z,17.85
2018-08-11T07:36:06.057Z,17.80
2018-08-11T07:38:34.333Z,18.50
2018-08-11T07:41:02.663Z,18.90
2018-08-11T07:43:30.997Z,17.07
2018-08-11T07:45:59.347Z,15.43
2018-08-11T07:48:27.684Z,16.55
2018-08-11T07:50:56.296Z,12.65
2018-08-11T07:53:24.657Z,11.00
2018-08-11T07:55:53.035Z,10.40
2018-08-11T07:58:21.556Z,10.80
2018-08-11T08:00:49.910Z,10.60
2018-08-11T08:03:18.222Z,9.80
2018-08-11T08:05:46.566Z,8.30
2018-08-11T08:08:14.905Z,12.33
2018-08-11T08:10:43.259Z,10.55
2018-08-11T08:13:11.617Z,9.48
2018-08-11T08:15:39.980Z,7.90
2018-08-11T08:18:08.304Z,6.62
2018-08-11T08:20:36.703Z,6.15
2018-08-11T08:23:05.058Z,5.10
2018-08-11T08:25:33.424Z,5.70
2018-08-11T08:28:01.850Z,4.78
2018-08-11T08:30:30.200Z,4.42
2018-08-11T08:32:58.575Z,3.83
2018-08-11T08:35:26.925Z,3.50
2018-08-11T08:37:55.261Z,3.20
2018-08-11T08:40:23.643Z,3.00
2018-08-11T08:42:51.975Z,2.50
2018-08-11T08:45:20.392Z,2.70
2018-08-11T08:47:48.771Z,2.55
2018-08-11T08:50:17.118Z,2.62
2018-08-11T08:52:45.446Z,2.65
2018-08-11T08:55:13.780Z,2.72
2018-08-11T08:57:42.120Z,2.67
2018-08-11T09:00:10.428Z,3.50
2018-08-11T09:02:38.781Z,14.40
2018-08-11T09:05:07.144Z,4.60
2018-08-11T09:07:35.562Z,8.80
2018-08-11T09:10:03.955Z,8.87
2018-08-11T09:12:32.288Z,6.90
2018-08-11T09:15:00.659Z,10.78
2018-08-11T09:17:29.041Z,4.45
2018-08-11T09:19:57.409Z,2.40
2018-08-11T09:22:25.749Z,2.27
2018-08-11T09:24:54.097Z,6.27
2018-08-11T09:27:22.445Z,26.57
2018-08-11T09:29:50.749Z,4.50
2018-08-11T09:32:19.104Z,1.90
2018-08-11T09:34:47.414Z,1.90
2018-08-11T09:37:15.763Z,1.80
2018-08-11T09:39:44.070Z,1.70
2018-08-11T09:42:12.607Z,1.73
2018-08-11T09:44:40.914Z,1.80
2018-08-11T09:47:09.252Z,2.10
2018-08-11T09:49:37.684Z,1.80
2018-08-11T09:52:06.032Z,1.95
2018-08-11T09:54:34.338Z,1.80
2018-08-11T09:57:02.716Z,1.90
2018-08-11T09:59:31.053Z,1.67
2018-08-11T10:02:04.656Z,1.40
2018-08-11T10:04:33.166Z,1.60
2018-08-11T10:07:01.578Z,1.57
2018-08-11T10:09:29.988Z,1.60
2018-08-11T10:11:58.330Z,1.50
2018-08-11T10:14:26.920Z,1.65
2018-08-11T10:16:55.257Z,1.80
2018-08-11T10:19:23.615Z,1.65
2018-08-11T10:21:51.950Z,1.47
2018-08-11T10:24:20.504Z,7.17
2018-08-11T10:26:48.823Z,2.40
2018-08-11T10:29:17.187Z,1.70
2018-08-11T10:31:45.542Z,2.20
2018-08-11T10:34:13.899Z,1.90
2018-08-11T10:36:42.276Z,1.90
2018-08-11T10:39:12.334Z,2.00
2018-08-11T10:41:41.025Z,1.80
2018-08-11T10:44:10.244Z,1.80
2018-08-11T10:46:38.851Z,1.70
2018-08-11T10:49:07.428Z,1.80
2018-08-11T10:51:36.221Z,1.50
2018-08-11T10:54:04.544Z,1.93
2018-08-11T10:56:33.132Z,1.95
2018-08-11T10:59:01.460Z,1.70
2018-08-11T11:01:29.824Z,1.70
2018-08-11T11:03:58.145Z,1.50
2018-08-11T11:06:26.493Z,1.60
2018-08-11T11:08:54.784Z,1.60
2018-08-11T11:11:23.147Z,1.77
2018-08-11T11:13:51.512Z,2.00
2018-08-11T11:16:19.882Z,1.52
2018-08-11T11:18:48.267Z,2.00
2018-08-11T11:21:16.615Z,1.90
2018-08-11T11:23:44.956Z,1.60
2018-08-11T11:26:13.291Z,1.60
2018-08-11T11:28:41.657Z,1.30
2018-08-11T11:31:10.012Z,1.62
2018-08-11T11:33:38.337Z,1.40
2018-08-11T11:36:06.685Z,1.50
2018-08-11T11:38:35.044Z,1.45
2018-08-11T11:41:03.411Z,1.90
2018-08-11T11:43:31.771Z,1.70
2018-08-11T11:46:00.134Z,1.72
2018-08-11T11:48:28.476Z,1.90
2018-08-11T11:50:56.840Z,1.60
2018-08-11T11:53:25.169Z,1.70
2018-08-11T11:55:53.696Z,1.22
2018-08-11T11:58:22.055Z,1.70
2018-08-11T12:00:50.369Z,1.70
2018-08-11T12:03:18.710Z,1.60
2018-08-11T12:05:47.042Z,1.50
2018-08-11T12:08:15.387Z,1.30
2018-08-11T12:10:43.685Z,1.70
2018-08-11T12:13:12.001Z,1.50
2018-08-11T12:15:40.351Z,1.60
2018-08-11T12:18:08.673Z,1.50
2018-08-11T12:20:37.093Z,2.10
2018-08-11T12:23:05.510Z,2.17
2018-08-11T12:25:33.839Z,1.87
2018-08-11T12:28:02.175Z,2.20
2018-08-11T12:30:30.496Z,1.80
2018-08-11T12:32:58.842Z,1.80
2018-08-11T12:35:27.150Z,2.00
2018-08-11T12:37:55.476Z,1.80
2018-08-11T12:40:23.801Z,1.67
2018-08-11T12:42:52.167Z,1.60
2018-08-11T12:45:20.552Z,1.70
2018-08-11T12:47:48.906Z,1.57
2018-08-11T12:50:17.273Z,1.60
2018-08-11T12:52:45.602Z,1.80
2018-08-11T12:55:13.943Z,1.55
2018-08-11T12:57:42.281Z,1.60
2018-08-11T13:00:10.993Z,1.72
2018-08-11T13:02:39.442Z,2.02
2018-08-11T13:05:07.852Z,1.62
2018-08-11T13:07:36.217Z,1.80
2018-08-11T13:10:05.265Z,1.62
2018-08-11T13:12:33.626Z,2.58
2018-08-11T13:15:01.959Z,1.60
2018-08-11T13:17:30.264Z,1.40
2018-08-11T13:19:58.596Z,1.40
2018-08-11T13:22:26.916Z,1.50
2018-08-11T13:24:55.243Z,1.53
2018-08-11T13:27:23.655Z,1.50
2018-08-11T13:29:51.940Z,1.60
2018-08-11T13:32:20.300Z,1.60
2018-08-11T13:34:48.602Z,1.50
2018-08-11T13:37:16.932Z,1.40
2018-08-11T13:39:50.374Z,1.45
2018-08-11T13:42:19.227Z,1.60
2018-08-11T13:44:47.566Z,1.40
2018-08-11T13:47:15.973Z,1.43
2018-08-11T13:49:44.504Z,1.33
2018-08-11T13:52:12.878Z,1.50
2018-08-11T13:54:41.407Z,1.60
2018-08-11T13:57:09.757Z,1.50
2018-08-11T13:59:38.185Z,1.20
2018-08-11T14:02:06.677Z,1.40
2018-08-11T14:04:35.339Z,1.30
2018-08-11T14:07:03.784Z,1.50
2018-08-11T14:09:32.319Z,1.60
2018-08-11T14:12:00.652Z,1.80
2018-08-11T14:14:29.083Z,1.30
2018-08-11T14:16:57.420Z,1.85
2018-08-11T14:19:25.730Z,1.70
2018-08-11T14:21:54.081Z,1.50
2018-08-11T14:24:22.443Z,1.40
2018-08-11T14:26:50.775Z,1.80
2018-08-11T14:29:19.124Z,1.90
2018-08-11T14:31:47.442Z,1.57
2018-08-11T14:34:15.829Z,1.95
2018-08-11T14:36:44.173Z,1.50
2018-08-11T14:39:12.547Z,1.67
2018-08-11T14:41:40.867Z,2.12
2018-08-11T14:44:09.440Z,1.90
2018-08-11T14:46:37.792Z,1.90
2018-08-11T14:49:06.699Z,1.90
2018-08-11T14:51:35.383Z,1.70
2018-08-11T14:54:03.880Z,1.80
2018-08-11T14:56:32.181Z,2.50
2018-08-11T14:59:00.625Z,2.30
2018-08-11T15:01:28.940Z,2.20
2018-08-11T15:03:57.315Z,2.60
2018-08-11T15:06:25.657Z,2.20
2018-08-11T15:08:54.232Z,2.20
2018-08-11T15:11:22.558Z,1.90
2018-08-11T15:13:50.893Z,1.70
2018-08-11T15:16:19.256Z,1.63
2018-08-11T15:18:47.615Z,1.70
2018-08-11T15:21:15.996Z,1.60
2018-08-11T15:23:44.310Z,1.50
2018-08-11T15:26:12.697Z,1.75
2018-08-11T15:28:41.074Z,1.52
2018-08-11T15:31:09.395Z,1.32
2018-08-11T15:33:37.783Z,1.35
2018-08-11T15:36:06.115Z,1.20
2018-08-11T15:38:34.425Z,1.20
2018-08-11T15:41:02.750Z,1.30
2018-08-11T15:43:31.095Z,1.10
2018-08-11T15:45:59.448Z,1.10
2018-08-11T15:48:27.826Z,1.50
2018-08-11T15:50:56.253Z,1.00
2018-08-11T15:53:24.617Z,1.17
2018-08-11T15:55:53.240Z,0.90
2018-08-11T15:58:21.590Z,1.22
2018-08-11T16:00:49.913Z,1.00
2018-08-11T16:03:18.279Z,1.30
2018-08-11T16:05:46.644Z,1.60
2018-08-11T16:08:15.107Z,1.40
2018-08-11T16:10:43.730Z,2.00
2018-08-11T16:13:12.056Z,1.30
2018-08-11T16:15:40.401Z,1.20
2018-08-11T16:18:08.738Z,1.45
2018-08-11T16:20:37.143Z,1.50
2018-08-11T16:23:05.455Z,1.60
2018-08-11T16:25:33.841Z,1.50
2018-08-11T16:28:02.176Z,1.90
2018-08-11T16:30:30.496Z,1.80
2018-08-11T16:32:58.801Z,1.92
2018-08-11T16:35:27.124Z,1.40
2018-08-11T16:37:55.436Z,2.10
2018-08-11T16:40:23.786Z,1.50
2018-08-11T16:42:52.097Z,1.40
2018-08-11T16:45:20.458Z,1.50
2018-08-11T16:47:48.798Z,1.50
2018-08-11T16:50:17.126Z,1.70
2018-08-11T16:52:45.441Z,1.50
2018-08-11T16:55:13.822Z,1.40
2018-08-11T16:57:42.172Z,1.30
2018-08-11T17:00:12.300Z,1.47
2018-08-11T17:02:40.949Z,1.20
2018-08-11T17:05:09.277Z,1.40
2018-08-11T17:07:37.596Z,1.30
2018-08-11T17:10:07.422Z,2.10
2018-08-11T17:12:36.026Z,1.40
2018-08-11T17:15:04.448Z,1.60
2018-08-11T17:17:32.813Z,1.60
2018-08-11T17:20:01.183Z,1.50
2018-08-11T17:22:29.735Z,1.30
2018-08-11T17:24:58.057Z,1.10
2018-08-11T17:27:26.406Z,0.90
2018-08-11T17:29:54.753Z,1.00
2018-08-11T17:32:23.114Z,0.85
2018-08-11T17:34:51.465Z,1.20
2018-08-11T17:37:19.990Z,1.12
2018-08-11T17:39:48.366Z,0.90
2018-08-11T17:42:16.679Z,0.90
2018-08-11T17:44:44.980Z,1.10
2018-08-11T17:47:13.368Z,1.00
2018-08-11T17:49:41.750Z,0.98
2018-08-11T17:52:10.076Z,1.10
2018-08-11T17:54:38.393Z,1.20
2018-08-11T17:57:06.908Z,1.25
2018-08-11T17:59:35.213Z,1.00
2018-08-11T18:02:03.586Z,1.30
2018-08-11T18:04:31.905Z,1.75
2018-08-11T18:07:00.316Z,1.35
2018-08-11T18:09:28.624Z,1.50
2018-08-11T18:11:56.956Z,1.50
2018-08-11T18:14:25.304Z,1.50
2018-08-11T18:16:53.684Z,1.10
2018-08-11T18:19:22.009Z,1.00
2018-08-11T18:21:50.891Z,1.00
2018-08-11T18:24:19.283Z,1.20
2018-08-11T18:26:47.638Z,1.10
2018-08-11T18:29:16.071Z,1.32
2018-08-11T18:31:44.387Z,0.80
2018-08-11T18:34:12.767Z,0.93
2018-08-11T18:36:41.072Z,1.10
2018-08-11T18:39:11.488Z,1.20
2018-08-11T18:41:39.923Z,0.95
2018-08-11T18:44:08.245Z,0.90
2018-08-11T18:46:36.787Z,1.10
2018-08-11T18:49:05.233Z,1.10
2018-08-11T18:51:33.628Z,1.10
2018-08-11T18:54:02.167Z,1.30
2018-08-11T18:56:30.606Z,0.98
2018-08-11T18:58:58.954Z,1.00
2018-08-11T19:01:27.366Z,1.10
2018-08-11T19:03:55.702Z,1.10
2018-08-11T19:06:24.033Z,1.10
2018-08-11T19:08:52.456Z,1.10
2018-08-11T19:11:20.937Z,1.00
2018-08-11T19:13:49.310Z,1.00
2018-08-11T19:16:17.658Z,1.00
2018-08-11T19:18:46.025Z,1.07
2018-08-11T19:21:14.360Z,0.90
2018-08-11T19:23:42.720Z,0.98
2018-08-11T19:26:11.108Z,1.00
2018-08-11T19:28:39.455Z,1.00
2018-08-11T19:31:07.832Z,1.10
2018-08-11T19:33:36.338Z,1.35
2018-08-11T19:36:04.683Z,1.30
2018-08-11T19:38:32.995Z,1.12
2018-08-11T19:41:01.342Z,1.30
2018-08-11T19:43:29.676Z,1.40
2018-08-11T19:45:58.042Z,1.60
2018-08-11T19:48:26.352Z,1.60
2018-08-11T19:50:54.689Z,1.60
2018-08-11T19:53:23.037Z,1.40
2018-08-11T19:55:51.422Z,1.57
2018-08-11T19:58:19.844Z,1.10
2018-08-11T20:00:48.209Z,1.30
2018-08-11T20:03:16.784Z,1.27
2018-08-11T20:05:45.134Z,1.20
2018-08-11T20:08:13.579Z,1.40
2018-08-11T20:10:41.893Z,1.30
2018-08-11T20:13:10.244Z,1.40
2018-08-11T20:15:38.631Z,1.47
2018-08-11T20:18:06.950Z,1.90
2018-08-11T20:20:35.335Z,1.50
2018-08-11T20:23:03.702Z,1.80
2018-08-11T20:25:32.208Z,2.10
2018-08-11T20:28:00.469Z,2.10
2018-08-11T20:30:28.806Z,2.15
2018-08-11T20:32:57.217Z,2.60
2018-08-11T20:35:25.609Z,2.80
2018-08-11T20:37:54.026Z,2.95
2018-08-11T20:40:22.362Z,2.60
2018-08-11T20:42:50.685Z,2.80
2018-08-11T20:45:19.087Z,3.20
2018-08-11T20:47:47.461Z,3.20
2018-08-11T20:50:15.820Z,3.47
2018-08-11T20:52:44.264Z,3.70
2018-08-11T20:55:12.677Z,3.22
2018-08-11T20:57:41.029Z,2.90
2018-08-11T21:00:11.486Z,3.42
2018-08-11T21:02:39.907Z,3.30
2018-08-11T21:05:12.038Z,3.35
2018-08-11T21:07:40.691Z,3.52
2018-08-11T21:10:11.969Z,3.73
2018-08-11T21:12:40.731Z,3.50
2018-08-11T21:15:09.925Z,3.10
2018-08-11T21:17:38.625Z,3.05
2018-08-11T21:20:08.762Z,3.02
2018-08-11T21:22:37.231Z,3.10
2018-08-11T21:25:06.680Z,3.33
2018-08-11T21:27:35.225Z,3.20
2018-08-11T21:30:03.700Z,3.58
2018-08-11T21:32:32.041Z,3.60
2018-08-11T21:35:00.459Z,3.92
2018-08-11T21:37:28.857Z,3.62
2018-08-11T21:39:57.245Z,4.00
2018-08-11T21:42:25.634Z,4.25
2018-08-11T21:44:53.997Z,3.83
2018-08-11T21:47:22.351Z,3.70
2018-08-11T21:49:50.819Z,3.80
2018-08-11T21:52:19.183Z,3.80
2018-08-11T21:54:47.631Z,2.95
2018-08-11T21:57:15.968Z,2.80
2018-08-11T21:59:44.453Z,2.83
2018-08-11T22:02:12.824Z,2.62
2018-08-11T22:04:41.088Z,2.40
2018-08-11T22:07:09.430Z,2.37
2018-08-11T22:09:37.882Z,2.15
2018-08-11T22:12:06.262Z,2.10
2018-08-11T22:14:34.685Z,1.95
2018-08-11T22:17:03.000Z,1.80
2018-08-11T22:19:31.309Z,1.60
2018-08-11T22:21:59.670Z,1.47
2018-08-11T22:24:28.063Z,1.80
2018-08-11T22:26:56.743Z,1.55
2018-08-11T22:29:25.304Z,1.60
2018-08-11T22:31:53.676Z,2.10
2018-08-11T22:34:22.077Z,2.30
2018-08-11T22:36:50.398Z,2.10
2018-08-11T22:39:18.765Z,2.40
2018-08-11T22:41:47.099Z,1.90
2018-08-11T22:44:15.452Z,1.80
2018-08-11T22:46:43.846Z,2.05
2018-08-11T22:49:12.186Z,2.00
2018-08-11T22:51:40.561Z,1.90
2018-08-11T22:54:09.022Z,2.10
2018-08-11T22:56:37.359Z,2.60
2018-08-11T22:59:05.776Z,5.00
2018-08-11T23:01:34.140Z,8.43
2018-08-11T23:04:02.509Z,2.30
2018-08-11T23:06:30.899Z,2.20
2018-08-11T23:08:59.258Z,2.30
2018-08-11T23:11:27.591Z,1.92
2018-08-11T23:13:55.996Z,2.10
2018-08-11T23:16:24.319Z,2.00
2018-08-11T23:18:53.042Z,1.80
2018-08-11T23:21:21.550Z,1.70
2018-08-11T23:23:49.971Z,1.40
2018-08-11T23:26:18.454Z,1.40
2018-08-11T23:28:46.793Z,1.60
2018-08-11T23:31:15.195Z,1.40
2018-08-11T23:33:43.531Z,1.85
2018-08-11T23:36:11.912Z,2.10
2018-08-11T23:38:40.267Z,2.10
2018-08-11T23:41:08.588Z,1.85
2018-08-11T23:43:36.963Z,1.90
2018-08-11T23:46:05.500Z,1.90
2018-08-11T23:48:33.830Z,2.00
2018-08-11T23:51:02.236Z,2.00
2018-08-11T23:53:30.589Z,2.10
2018-08-11T23:55:58.890Z,1.90
2018-08-11T23:58:27.296Z,2.00
